Time;durP1;ratioP1;P1;durP2;ratioP2;P2;SDS_P1;SDS_P2;PMS_P1;PMS_P2;Temp;Humidity;BMP_temperature;BMP_pressure;BME280_temperature;BME280_humidity;BME280_pressure;Samples;Min_cycle;Max_cycle;Signal;HPM_P1;HPM_P2
2022/12/09 00:01:28;;;;;;;40.57;16.17;;;-0.70;99.90;;;;;;5241846;28;20446;-52
2022/12/09 00:03:59;;;;;;;35.97;14.23;;;-0.70;99.90;;;;;;5222763;28;20483;-52
2022/12/09 00:06:30;;;;;;;22.93;12.53;;;-0.70;99.90;;;;;;5225909;28;20432;-51
2022/12/09 00:09:01;;;;;;;30.00;12.83;;;-0.80;99.90;;;;;;5238250;28;20646;-50
2022/12/09 00:11:31;;;;;;;24.83;12.17;;;-0.90;99.90;;;;;;5228873;28;20483;-51
2022/12/09 00:14:02;;;;;;;17.53;8.97;;;-0.90;99.90;;;;;;5236224;28;20194;-51
2022/12/09 00:16:32;;;;;;;20.57;11.47;;;-0.90;99.90;;;;;;5225657;28;20192;-50
2022/12/09 00:19:03;;;;;;;20.77;11.53;;;-1.00;99.90;;;;;;5221251;28;20234;-50
2022/12/09 00:21:34;;;;;;;16.87;9.60;;;-1.10;99.90;;;;;;5245614;28;20186;-52
2022/12/09 00:24:06;;;;;;;24.27;11.40;;;-1.10;99.90;;;;;;5243211;28;20211;-49
2022/12/09 00:26:37;;;;;;;19.67;11.23;;;-1.10;99.90;;;;;;5218200;28;20432;-51
2022/12/09 00:29:09;;;;;;;19.50;11.07;;;-1.10;99.90;;;;;;5238760;28;20472;-49
2022/12/09 00:31:39;;;;;;;17.80;10.70;;;-1.20;99.90;;;;;;5222609;28;20277;-53
2022/12/09 00:34:12;;;;;;;13.33;9.17;;;-1.20;99.90;;;;;;5227684;28;20667;-49
2022/12/09 00:36:42;;;;;;;19.03;9.27;;;-1.20;99.90;;;;;;5224524;28;20573;-51
2022/12/09 00:39:13;;;;;;;12.13;8.00;;;-1.20;99.90;;;;;;5231371;28;20483;-49
2022/12/09 00:41:44;;;;;;;14.43;9.03;;;-1.30;99.90;;;;;;5230371;28;20190;-51
2022/12/09 00:44:15;;;;;;;12.17;8.53;;;-1.30;99.90;;;;;;5242078;28;20926;-52
2022/12/09 00:46:45;;;;;;;13.30;8.90;;;-1.40;99.90;;;;;;5234258;28;20175;-51
2022/12/09 00:49:16;;;;;;;13.20;8.60;;;-1.40;99.90;;;;;;5250180;28;20553;-51
2022/12/09 00:51:47;;;;;;;19.10;10.60;;;-1.30;99.90;;;;;;5254445;28;20193;-49
2022/12/09 00:54:17;;;;;;;38.83;19.30;;;-1.40;99.90;;;;;;5250038;28;20203;-51
2022/12/09 00:56:48;;;;;;;46.70;20.90;;;-1.30;99.90;;;;;;5239683;28;20190;-53
2022/12/09 00:59:18;;;;;;;41.77;19.73;;;-1.30;99.90;;;;;;5237499;28;20303;-51
2022/12/09 01:01:49;;;;;;;34.13;17.87;;;-1.30;99.90;;;;;;5249580;28;20186;-52
2022/12/09 01:04:20;;;;;;;39.77;17.97;;;-1.20;99.90;;;;;;5238409;28;20182;-52
2022/12/09 01:06:50;;;;;;;37.10;18.17;;;-1.20;99.90;;;;;;5240022;28;20188;-52
2022/12/09 01:09:21;;;;;;;51.37;20.73;;;-1.20;99.90;;;;;;5232720;28;20182;-50
2022/12/09 01:11:52;;;;;;;54.87;21.20;;;-1.20;99.90;;;;;;5244078;28;20267;-50
2022/12/09 01:14:22;;;;;;;52.07;22.67;;;-1.10;99.90;;;;;;5241712;28;20186;-51
2022/12/09 01:16:53;;;;;;;34.77;15.37;;;-1.20;99.90;;;;;;5243768;28;20566;-49
2022/12/09 01:19:24;;;;;;;30.47;14.67;;;-1.10;99.90;;;;;;5244370;28;20257;-52
2022/12/09 01:21:54;;;;;;;42.13;18.40;;;-1.10;99.90;;;;;;5224128;28;20198;-51
2022/12/09 01:24:25;;;;;;;32.83;17.07;;;-1.20;99.90;;;;;;5225927;28;20302;-53
2022/12/09 01:26:56;;;;;;;84.10;30.87;;;-1.20;99.90;;;;;;5235336;28;20181;-52
2022/12/09 01:29:26;;;;;;;50.07;22.37;;;-1.10;99.90;;;;;;5236719;28;20289;-52
2022/12/09 01:31:57;;;;;;;52.63;22.23;;;-1.00;99.90;;;;;;5226956;28;20279;-52
2022/12/09 01:34:27;;;;;;;45.30;20.60;;;-0.90;99.90;;;;;;5244649;28;20183;-51
2022/12/09 01:36:58;;;;;;;43.77;18.90;;;-0.80;99.90;;;;;;5221746;28;20195;-50
2022/12/09 01:39:29;;;;;;;37.77;17.63;;;-0.80;99.90;;;;;;5230392;28;20232;-53
2022/12/09 01:42:03;;;;;;;38.80;18.10;;;-0.90;99.90;;;;;;5230936;28;20204;-51
2022/12/09 01:44:34;;;;;;;35.40;16.90;;;-0.90;99.90;;;;;;5228319;28;20268;-52
2022/12/09 01:47:20;;;;;;;41.07;16.67;;;-0.80;99.90;;;;;;5248427;28;20519;-52
2022/12/09 01:49:51;;;;;;;41.73;19.23;;;-0.80;99.90;;;;;;5230411;28;20190;-50
2022/12/09 01:52:22;;;;;;;45.07;19.37;;;-0.80;99.90;;;;;;5229213;28;20454;-50
2022/12/09 01:54:53;;;;;;;57.53;24.53;;;-0.80;99.90;;;;;;5235509;28;20190;-50
2022/12/09 01:57:24;;;;;;;46.53;20.83;;;-0.70;99.90;;;;;;5243932;28;20451;-50
2022/12/09 01:59:55;;;;;;;41.73;20.00;;;-0.60;99.90;;;;;;5243036;28;20420;-50
2022/12/09 02:02:31;;;;;;;85.60;29.03;;;-0.60;99.90;;;;;;5243761;28;20519;-50
2022/12/09 02:05:03;;;;;;;83.60;27.30;;;-0.70;99.90;;;;;;5239334;28;20174;-51
2022/12/09 02:07:34;;;;;;;74.30;26.80;;;-0.70;99.90;;;;;;5239851;28;20455;-52
2022/12/09 02:10:10;;;;;;;47.83;21.80;;;-0.60;99.90;;;;;;5242345;28;20430;-51
2022/12/09 02:12:53;;;;;;;80.10;28.10;;;-0.60;99.90;;;;;;5222109;28;20538;-53
2022/12/09 02:15:36;;;;;;;62.97;22.93;;;-0.60;99.90;;;;;;5227492;28;20857;-53
2022/12/09 02:18:24;;;;;;;66.23;28.23;;;-0.50;99.90;;;;;;5242728;28;20457;-51
2022/12/09 02:20:55;;;;;;;48.90;21.57;;;-0.50;99.90;;;;;;5243597;28;20787;-52
2022/12/09 02:23:40;;;;;;;54.27;23.40;;;-0.50;99.90;;;;;;5227748;28;20437;-52
2022/12/09 02:26:11;;;;;;;82.67;29.20;;;-0.50;99.90;;;;;;5242559;28;20553;-52
2022/12/09 02:29:10;;;;;;;61.80;23.43;;;-0.50;99.90;;;;;;5236147;23;20843;-48
2022/12/09 02:32:03;;;;;;;76.40;27.70;;;-0.50;99.90;;;;;;5217682;28;20269;-48
2022/12/09 02:34:39;;;;;;;100.10;31.73;;;-0.40;99.90;;;;;;5217087;28;20433;-49
2022/12/09 02:37:18;;;;;;;99.27;29.37;;;-0.40;99.90;;;;;;5217669;28;20576;-49
2022/12/09 02:39:55;;;;;;;83.50;27.70;;;-0.40;99.90;;;;;;5197940;28;20523;-49
2022/12/09 02:42:30;;;;;;;63.97;24.00;;;-0.30;99.90;;;;;;5201279;28;20506;-47
2022/12/09 02:45:04;;;;;;;61.57;24.63;;;-0.30;99.90;;;;;;5192628;28;20442;-47
2022/12/09 02:47:39;;;;;;;88.73;28.37;;;-0.30;99.90;;;;;;5204413;28;20458;-47
2022/12/09 02:50:13;;;;;;;76.73;23.03;;;-0.30;99.90;;;;;;5198545;28;20437;-47
2022/12/09 02:52:45;;;;;;;46.63;21.13;;;-0.30;99.90;;;;;;5203806;28;20420;-49
2022/12/09 02:55:18;;;;;;;73.00;26.10;;;-0.20;99.90;;;;;;5187901;28;20454;-46
2022/12/09 02:57:56;;;;;;;85.43;29.80;;;-0.10;99.90;;;;;;5214454;28;20453;-47
2022/12/09 03:00:28;;;;;;;67.63;23.70;;;-0.10;99.90;;;;;;5204607;28;20441;-47
2022/12/09 03:03:01;;;;;;;53.47;22.70;;;0.00;99.90;;;;;;5205224;28;20426;-49
2022/12/09 03:05:35;;;;;;;98.63;26.07;;;0.10;99.90;;;;;;5208638;28;20429;-48
2022/12/09 03:08:09;;;;;;;85.33;28.00;;;0.20;99.90;;;;;;5197398;28;20463;-49
2022/12/09 03:10:42;;;;;;;81.13;27.33;;;0.10;99.90;;;;;;5193516;28;20436;-48
2022/12/09 03:13:34;;;;;;;74.07;27.50;;;0.10;99.90;;;;;;5198232;28;20441;-48
2022/12/09 03:16:29;;;;;;;108.60;31.30;;;0.10;99.90;;;;;;5191152;28;20447;-47
2022/12/09 03:19:13;;;;;;;82.10;28.17;;;0.10;99.90;;;;;;5213153;28;20511;-48
2022/12/09 03:21:46;;;;;;;86.83;28.97;;;0.10;99.90;;;;;;5195898;28;20936;-46
2022/12/09 03:24:21;;;;;;;66.57;24.83;;;0.10;99.90;;;;;;5190518;28;20437;-48
2022/12/09 03:26:52;;;;;;;52.43;20.40;;;0.10;99.90;;;;;;5192786;28;20438;-47
2022/12/09 03:29:28;;;;;;;83.33;24.27;;;0.10;99.90;;;;;;5203698;28;21038;-46
2022/12/09 03:31:59;;;;;;;52.43;21.43;;;0.10;99.90;;;;;;5193035;28;20434;-47
2022/12/09 03:34:35;;;;;;;49.63;19.17;;;0.10;99.90;;;;;;5191397;28;20450;-48
2022/12/09 03:37:07;;;;;;;67.03;23.60;;;0.10;99.90;;;;;;5194828;28;20185;-46
2022/12/09 03:39:39;;;;;;;65.77;23.03;;;0.10;99.90;;;;;;5183944;28;20944;-48
2022/12/09 03:42:37;;;;;;;46.50;18.47;;;0.10;99.90;;;;;;5204449;28;20478;-48
2022/12/09 03:45:14;;;;;;;43.30;17.50;;;0.10;99.90;;;;;;5191802;28;20897;-48
2022/12/09 03:47:44;;;;;;;42.90;17.63;;;0.10;99.90;;;;;;5187789;28;20892;-48
2022/12/09 03:50:15;;;;;;;76.10;27.23;;;0.10;99.90;;;;;;5186130;28;20436;-48
2022/12/09 03:52:52;;;;;;;73.67;25.13;;;0.10;99.90;;;;;;5202722;28;20307;-47
2022/12/09 03:55:35;;;;;;;69.83;23.80;;;0.00;99.90;;;;;;5199552;28;20435;-48
2022/12/09 03:58:08;;;;;;;61.33;21.27;;;0.10;99.90;;;;;;5208074;28;20571;-47
2022/12/09 04:00:39;;;;;;;70.93;24.60;;;0.10;99.90;;;;;;5205496;28;20435;-46
2022/12/09 04:03:12;;;;;;;50.97;19.57;;;0.10;99.90;;;;;;5180121;28;20793;-47
2022/12/09 04:05:43;;;;;;;55.30;20.77;;;0.20;99.90;;;;;;5172253;28;20485;-48
2022/12/09 04:08:13;;;;;;;75.70;26.03;;;0.20;99.90;;;;;;5191215;28;20848;-46
2022/12/09 04:10:44;;;;;;;73.77;23.63;;;0.20;99.90;;;;;;5190016;28;20180;-48
2022/12/09 04:13:15;;;;;;;97.90;27.30;;;0.10;99.90;;;;;;5187490;28;20724;-46
2022/12/09 04:15:45;;;;;;;56.13;21.87;;;0.10;99.90;;;;;;5194424;28;20714;-47
2022/12/09 04:18:16;;;;;;;48.83;21.03;;;0.10;99.90;;;;;;5195774;28;20217;-46
2022/12/09 04:20:47;;;;;;;36.17;19.67;;;0.10;99.90;;;;;;5195670;28;20174;-47
2022/12/09 04:23:17;;;;;;;44.47;19.67;;;0.10;99.90;;;;;;5182944;28;21865;-47
2022/12/09 04:25:48;;;;;;;55.23;20.13;;;0.20;99.90;;;;;;5199612;28;20199;-46
2022/12/09 04:28:19;;;;;;;39.80;18.00;;;0.20;99.90;;;;;;5193477;28;20705;-47
2022/12/09 04:30:49;;;;;;;47.43;21.00;;;0.20;99.90;;;;;;5207927;28;20187;-47
2022/12/09 04:33:20;;;;;;;72.60;23.93;;;0.30;99.90;;;;;;5188215;28;20187;-45
2022/12/09 04:35:51;;;;;;;66.80;23.27;;;0.10;99.90;;;;;;5197310;28;20199;-46
2022/12/09 04:38:21;;;;;;;102.50;30.33;;;0.20;99.90;;;;;;5204676;28;20293;-47
2022/12/09 04:40:52;;;;;;;75.60;26.17;;;0.20;99.90;;;;;;5181257;28;20188;-46
2022/12/09 04:43:23;;;;;;;103.50;30.53;;;0.20;99.90;;;;;;5188131;28;20182;-46
2022/12/09 04:45:58;;;;;;;82.93;28.07;;;0.20;99.90;;;;;;5190194;28;20265;-47
2022/12/09 04:48:29;;;;;;;90.23;30.00;;;0.20;99.90;;;;;;5204181;28;20814;-47
2022/12/09 04:51:00;;;;;;;103.57;31.27;;;0.20;99.90;;;;;;5177783;28;20513;-47
2022/12/09 04:53:31;;;;;;;98.87;29.30;;;0.10;99.90;;;;;;5185768;28;20573;-47
2022/12/09 04:56:04;;;;;;;69.37;23.80;;;0.10;99.90;;;;;;5192515;28;20183;-47
2022/12/09 04:58:36;;;;;;;92.83;31.83;;;0.10;99.90;;;;;;5183439;28;20784;-48
2022/12/09 05:01:12;;;;;;;94.47;26.53;;;0.10;99.90;;;;;;5194098;28;20435;-48
2022/12/09 05:03:43;;;;;;;98.07;31.77;;;0.10;99.90;;;;;;5208042;28;20437;-48
2022/12/09 05:06:13;;;;;;;91.80;29.83;;;0.10;99.90;;;;;;5199344;28;20961;-46
2022/12/09 05:08:45;;;;;;;128.13;33.73;;;0.00;99.90;;;;;;5199037;28;20244;-47
2022/12/09 05:11:17;;;;;;;98.97;32.60;;;0.00;99.90;;;;;;5182182;28;20849;-47
2022/12/09 05:13:47;;;;;;;106.63;31.70;;;-0.10;99.90;;;;;;5192238;28;20442;-47
2022/12/09 05:16:18;;;;;;;101.63;30.33;;;-0.20;99.90;;;;;;5184310;28;21085;-47
2022/12/09 05:18:49;;;;;;;102.23;30.93;;;-0.20;99.90;;;;;;5174472;28;20303;-46
2022/12/09 05:21:20;;;;;;;91.50;29.17;;;-0.30;99.90;;;;;;5185754;28;20565;-47
2022/12/09 05:23:51;;;;;;;90.30;27.87;;;-0.30;99.90;;;;;;5197330;28;20185;-48
2022/12/09 05:26:22;;;;;;;86.20;29.33;;;-0.40;99.90;;;;;;5193896;28;20426;-46
2022/12/09 05:28:53;;;;;;;74.63;27.30;;;-0.30;99.90;;;;;;5203524;28;20214;-47
2022/12/09 05:31:24;;;;;;;63.40;24.57;;;-0.50;99.90;;;;;;5203858;28;20461;-48
2022/12/09 05:33:54;;;;;;;93.03;31.43;;;-0.60;99.90;;;;;;5179976;28;20190;-49
2022/12/09 05:36:28;;;;;;;96.53;31.17;;;-0.70;99.90;;;;;;5179637;28;20239;-48
2022/12/09 05:38:59;;;;;;;98.53;30.50;;;-0.70;99.90;;;;;;5200005;28;20211;-48
2022/12/09 05:41:30;;;;;;;124.50;34.13;;;-0.70;99.90;;;;;;5214495;28;20496;-50
2022/12/09 05:44:00;;;;;;;69.80;24.60;;;-0.70;99.90;;;;;;5213036;28;20178;-49
2022/12/09 05:46:31;;;;;;;51.60;22.77;;;-0.70;99.90;;;;;;5206222;28;20196;-46
2022/12/09 05:49:02;;;;;;;52.90;19.93;;;-0.80;99.90;;;;;;5200776;28;20250;-48
2022/12/09 05:51:33;;;;;;;76.63;25.90;;;-0.80;99.90;;;;;;5191329;28;20690;-49
2022/12/09 05:54:05;;;;;;;75.17;26.23;;;-0.80;99.90;;;;;;5202131;28;20430;-49
2022/12/09 05:56:36;;;;;;;98.63;31.57;;;-0.70;99.90;;;;;;5186269;28;20226;-48
2022/12/09 05:59:08;;;;;;;106.80;31.37;;;-0.60;99.90;;;;;;5202096;28;20557;-48
2022/12/09 06:01:38;;;;;;;82.03;28.30;;;-0.50;99.90;;;;;;5186295;28;20180;-48
2022/12/09 06:04:09;;;;;;;117.33;33.50;;;-0.40;99.90;;;;;;5182955;28;20849;-48
2022/12/09 06:06:40;;;;;;;131.73;38.47;;;-0.40;99.90;;;;;;5200934;28;20193;-48
2022/12/09 06:09:11;;;;;;;116.03;33.67;;;-0.30;99.90;;;;;;5194014;28;20259;-48
2022/12/09 06:11:41;;;;;;;93.50;29.77;;;-0.30;99.90;;;;;;5203379;28;20197;-50
2022/12/09 06:14:12;;;;;;;90.30;28.73;;;-0.30;99.90;;;;;;5185937;28;20466;-49
2022/12/09 06:16:43;;;;;;;94.07;28.07;;;-0.40;99.90;;;;;;5179330;28;20686;-48
2022/12/09 06:19:15;;;;;;;61.07;24.40;;;-0.50;99.90;;;;;;5194845;28;20234;-51
2022/12/09 06:21:45;;;;;;;61.13;25.80;;;-0.50;99.90;;;;;;5204007;28;20214;-48
2022/12/09 06:24:16;;;;;;;95.27;30.80;;;-0.60;99.90;;;;;;5198249;28;20477;-48
2022/12/09 06:26:48;;;;;;;89.43;30.87;;;-0.70;99.90;;;;;;5183847;28;20749;-48
2022/12/09 06:29:19;;;;;;;99.10;30.90;;;-0.70;99.90;;;;;;5206477;28;20220;-48
2022/12/09 06:31:49;;;;;;;116.50;35.20;;;-0.50;99.90;;;;;;5202594;28;20517;-49
2022/12/09 06:34:20;;;;;;;74.73;28.47;;;-0.40;99.90;;;;;;5197417;28;20447;-49
2022/12/09 06:36:51;;;;;;;66.27;25.23;;;-0.30;99.90;;;;;;5187173;28;20197;-48
2022/12/09 06:39:21;;;;;;;99.33;31.23;;;-0.30;99.90;;;;;;5189854;28;20287;-47
2022/12/09 06:41:52;;;;;;;106.77;32.13;;;-0.10;99.90;;;;;;5187460;28;20238;-51
2022/12/09 06:44:23;;;;;;;129.87;36.37;;;0.00;99.90;;;;;;5203048;28;20185;-49
2022/12/09 06:46:54;;;;;;;124.23;36.07;;;0.00;99.90;;;;;;5200418;28;20330;-51
2022/12/09 06:49:25;;;;;;;154.10;40.63;;;0.00;99.90;;;;;;5212779;28;21018;-49
2022/12/09 06:51:55;;;;;;;137.97;40.20;;;0.00;99.90;;;;;;5191338;28;20194;-50
2022/12/09 06:54:26;;;;;;;143.43;43.77;;;0.10;99.90;;;;;;5186922;28;20191;-49
2022/12/09 06:56:57;;;;;;;151.53;43.67;;;0.10;99.90;;;;;;5196239;28;20188;-47
2022/12/09 06:59:28;;;;;;;112.60;35.30;;;0.10;99.90;;;;;;5199459;28;20217;-49
2022/12/09 07:01:59;;;;;;;119.00;38.00;;;0.10;99.90;;;;;;5196332;28;20731;-48
2022/12/09 07:04:29;;;;;;;69.20;29.40;;;0.10;99.90;;;;;;5188506;28;20611;-47
2022/12/09 07:07:00;;;;;;;105.10;35.10;;;0.20;99.90;;;;;;5201464;28;20206;-49
2022/12/09 07:09:31;;;;;;;144.47;39.63;;;0.10;99.90;;;;;;5196385;28;20294;-50
2022/12/09 07:12:01;;;;;;;112.30;32.13;;;0.10;99.90;;;;;;5172900;28;20191;-48
2022/12/09 07:14:32;;;;;;;123.00;37.13;;;0.20;99.90;;;;;;5176218;28;21099;-46
2022/12/09 07:17:03;;;;;;;122.90;34.77;;;0.30;99.90;;;;;;5163439;28;20195;-49
2022/12/09 07:19:34;;;;;;;132.13;36.93;;;0.20;99.90;;;;;;5191983;28;20234;-49
2022/12/09 07:22:04;;;;;;;176.53;42.33;;;0.10;99.90;;;;;;5200466;28;20489;-48
2022/12/09 07:24:38;;;;;;;120.70;33.40;;;0.20;99.90;;;;;;5183850;28;20807;-46
2022/12/09 07:27:13;;;;;;;121.33;37.60;;;0.30;99.90;;;;;;5186315;28;20184;-48
2022/12/09 07:29:44;;;;;;;107.27;34.87;;;0.30;99.90;;;;;;5176652;28;20445;-50
2022/12/09 07:32:15;;;;;;;111.53;32.70;;;0.30;99.90;;;;;;5174568;28;20981;-49
2022/12/09 07:34:45;;;;;;;86.47;32.33;;;0.30;99.90;;;;;;5183749;28;20210;-49
2022/12/09 07:37:16;;;;;;;101.50;30.73;;;0.40;99.90;;;;;;5201473;28;20228;-51
2022/12/09 07:39:47;;;;;;;103.50;34.23;;;0.50;99.90;;;;;;5177744;28;20222;-49
2022/12/09 07:42:17;;;;;;;109.70;33.00;;;0.70;99.90;;;;;;5179259;28;20580;-49
2022/12/09 07:44:48;;;;;;;69.00;26.40;;;0.60;99.90;;;;;;5176727;28;20663;-48
2022/12/09 07:47:19;;;;;;;114.73;34.00;;;0.60;99.90;;;;;;5192400;28;20683;-46
2022/12/09 07:49:50;;;;;;;95.30;34.13;;;0.60;99.90;;;;;;5196411;28;20228;-48
2022/12/09 07:52:21;;;;;;;88.57;32.40;;;0.60;99.90;;;;;;5182082;28;20469;-47
2022/12/09 07:54:53;;;;;;;114.00;38.90;;;0.60;99.90;;;;;;5187345;28;20444;-50
2022/12/09 07:57:24;;;;;;;108.90;33.60;;;0.70;99.90;;;;;;5179846;28;20283;-49
2022/12/09 07:59:55;;;;;;;73.23;28.30;;;0.70;99.90;;;;;;5197289;28;20604;-50
2022/12/09 08:02:26;;;;;;;69.90;28.10;;;0.80;99.90;;;;;;5187045;28;20513;-50
2022/12/09 08:04:57;;;;;;;74.17;26.93;;;1.00;99.90;;;;;;5166888;28;20195;-47
2022/12/09 08:07:28;;;;;;;67.93;27.37;;;1.10;99.90;;;;;;5194734;28;20439;-49
2022/12/09 08:09:58;;;;;;;68.50;25.73;;;1.00;99.90;;;;;;5189471;28;20197;-50
2022/12/09 08:12:29;;;;;;;74.50;25.90;;;1.00;99.90;;;;;;5181880;28;20190;-49
2022/12/09 08:15:00;;;;;;;109.40;30.93;;;1.00;99.90;;;;;;5177037;28;20180;-50
2022/12/09 08:17:31;;;;;;;78.33;28.00;;;1.10;99.90;;;;;;5195381;28;20186;-49
2022/12/09 08:20:03;;;;;;;117.30;33.80;;;1.10;99.90;;;;;;5166526;28;20680;-51
2022/12/09 08:22:34;;;;;;;106.60;34.97;;;1.10;99.90;;;;;;5171904;28;20596;-46
2022/12/09 08:25:05;;;;;;;88.40;32.00;;;1.10;99.90;;;;;;5176457;28;20436;-49
2022/12/09 08:27:36;;;;;;;99.70;34.30;;;1.10;99.90;;;;;;5184203;28;20462;-48
2022/12/09 08:30:07;;;;;;;66.03;29.00;;;1.00;99.90;;;;;;5198603;28;20438;-47
2022/12/09 08:32:38;;;;;;;78.50;30.67;;;0.90;99.90;;;;;;5200370;28;20190;-48
2022/12/09 08:35:13;;;;;;;92.73;33.70;;;0.70;99.90;;;;;;5179105;28;20948;-48
2022/12/09 08:37:44;;;;;;;79.17;32.10;;;0.50;99.90;;;;;;5184527;28;20268;-48
2022/12/09 08:40:15;;;;;;;113.33;42.60;;;0.50;99.90;;;;;;5202205;28;20594;-48
2022/12/09 08:42:46;;;;;;;107.90;38.23;;;0.40;99.90;;;;;;5197174;28;20188;-49
2022/12/09 08:45:16;;;;;;;102.47;40.70;;;0.40;99.90;;;;;;5189302;28;20180;-50
2022/12/09 08:47:47;;;;;;;117.93;38.20;;;0.50;99.90;;;;;;5182924;28;20192;-48
2022/12/09 08:50:18;;;;;;;103.10;35.90;;;0.70;99.90;;;;;;5192203;28;20179;-48
2022/12/09 08:52:49;;;;;;;105.30;37.70;;;0.60;99.90;;;;;;5190708;28;20445;-50
2022/12/09 08:55:20;;;;;;;94.83;36.40;;;0.50;99.90;;;;;;5173889;28;20183;-48
2022/12/09 08:57:51;;;;;;;108.60;38.10;;;0.50;99.90;;;;;;5177353;28;20461;-49
2022/12/09 09:00:22;;;;;;;139.47;39.20;;;0.50;99.90;;;;;;5193550;28;20187;-49
2022/12/09 09:02:52;;;;;;;114.57;36.50;;;0.50;99.90;;;;;;5172275;28;20233;-48
2022/12/09 09:05:23;;;;;;;128.70;44.13;;;0.60;99.90;;;;;;5176230;28;20213;-48
2022/12/09 09:07:54;;;;;;;114.20;39.00;;;0.60;99.90;;;;;;5197953;28;20203;-51
2022/12/09 09:10:25;;;;;;;125.93;41.63;;;0.60;99.90;;;;;;5181610;28;20292;-52
2022/12/09 09:12:55;;;;;;;134.07;43.97;;;0.60;99.90;;;;;;5196184;28;20510;-49
2022/12/09 09:15:26;;;;;;;151.57;51.87;;;0.60;99.90;;;;;;5193125;28;20186;-52
2022/12/09 09:17:57;;;;;;;113.20;39.43;;;0.60;99.90;;;;;;5180718;28;20206;-50
2022/12/09 09:20:28;;;;;;;126.03;38.27;;;0.70;99.90;;;;;;5197453;28;21148;-48
2022/12/09 09:22:59;;;;;;;117.47;37.77;;;0.90;99.90;;;;;;5182304;28;20215;-50
2022/12/09 09:25:29;;;;;;;115.90;35.97;;;1.00;99.90;;;;;;5185820;28;20187;-51
2022/12/09 09:28:00;;;;;;;112.40;37.03;;;1.00;99.90;;;;;;5181972;28;20479;-48
2022/12/09 09:30:31;;;;;;;92.83;34.30;;;1.10;99.90;;;;;;5200946;28;20214;-50
2022/12/09 09:33:04;;;;;;;99.53;35.63;;;0.90;99.90;;;;;;5165287;28;20238;-49
2022/12/09 09:35:35;;;;;;;106.73;37.50;;;0.90;99.90;;;;;;5200792;28;20546;-47
2022/12/09 09:38:05;;;;;;;112.10;36.60;;;0.80;99.90;;;;;;5196163;28;20801;-49
2022/12/09 09:40:40;;;;;;;96.53;33.80;;;0.70;99.90;;;;;;5183859;28;20192;-47
2022/12/09 09:43:16;;;;;;;91.87;33.87;;;0.90;99.90;;;;;;5191120;28;20477;-47
2022/12/09 09:45:48;;;;;;;123.13;37.50;;;1.00;99.90;;;;;;5182702;28;20983;-50
2022/12/09 09:48:23;;;;;;;89.27;32.37;;;1.30;99.90;;;;;;5178336;28;21092;-48
2022/12/09 09:51:04;;;;;;;71.00;31.50;;;1.00;99.90;;;;;;5194011;28;20437;-48
2022/12/09 09:53:35;;;;;;;101.97;37.03;;;0.90;99.90;;;;;;5182396;28;20434;-49
2022/12/09 09:56:15;;;;;;;97.97;34.10;;;0.80;99.90;;;;;;5185174;28;20451;-49
2022/12/09 09:59:16;;;;;;;126.00;39.67;;;0.80;99.90;;;;;;5188564;28;21082;-49
2022/12/09 10:02:10;;;;;;;116.43;36.70;;;0.70;99.90;;;;;;5181564;28;20439;-49
2022/12/09 10:05:02;;;;;;;104.20;37.30;;;0.70;99.90;;;;;;5171250;28;20457;-46
2022/12/09 10:07:42;;;;;;;96.77;35.33;;;0.70;99.90;;;;;;5182949;28;20984;-50
2022/12/09 10:10:31;;;;;;;107.33;36.67;;;0.70;99.90;;;;;;5196539;28;20557;-49
2022/12/09 10:13:20;;;;;;;125.87;40.10;;;0.70;99.90;;;;;;5196675;28;20434;-48
2022/12/09 10:16:08;;;;;;;97.30;33.77;;;0.80;99.90;;;;;;5185890;28;20915;-48
2022/12/09 10:19:06;;;;;;;111.47;37.60;;;1.00;99.90;;;;;;5190060;28;20497;-49
2022/12/09 10:21:42;;;;;;;116.23;35.47;;;1.00;99.90;;;;;;5182273;28;20441;-50
2022/12/09 10:24:27;;;;;;;83.60;33.53;;;1.00;99.90;;;;;;5178569;28;20438;-50
2022/12/09 10:27:12;;;;;;;92.57;33.20;;;1.00;99.90;;;;;;5179419;28;20446;-49
2022/12/09 10:30:19;;;;;;;99.77;34.10;;;0.90;99.90;;;;;;5201203;28;20477;-48
2022/12/09 10:32:51;;;;;;;87.93;33.73;;;1.00;99.90;;;;;;5118823;28;20483;-48
2022/12/09 10:35:27;;;;;;;85.47;30.60;;;1.30;99.90;;;;;;5163809;28;25747;-50
2022/12/09 10:38:25;;;;;;;98.43;34.07;;;1.40;99.90;;;;;;5193196;28;20553;-49
2022/12/09 10:41:11;;;;;;;78.37;30.70;;;1.40;99.90;;;;;;5182118;28;20448;-51
2022/12/09 10:43:45;;;;;;;96.00;31.37;;;1.20;99.90;;;;;;5194308;28;20481;-49
2022/12/09 10:46:16;;;;;;;82.60;32.17;;;0.90;99.90;;;;;;5201034;28;20441;-49
2022/12/09 10:48:47;;;;;;;83.87;31.23;;;0.90;99.90;;;;;;5203629;28;20456;-48
2022/12/09 10:51:25;;;;;;;105.73;37.10;;;0.70;99.90;;;;;;5191522;28;20869;-49
2022/12/09 10:54:26;;;;;;;97.40;35.43;;;0.70;99.90;;;;;;5207845;28;20188;-50
2022/12/09 10:57:15;;;;;;;99.43;34.47;;;0.70;99.90;;;;;;5162278;28;21048;-49
2022/12/09 11:00:18;;;;;;;87.73;34.17;;;0.70;99.90;;;;;;5196021;28;20883;-48
2022/12/09 11:02:52;;;;;;;96.90;35.27;;;0.80;99.90;;;;;;5179978;28;20453;-50
2022/12/09 11:05:26;;;;;;;99.57;36.83;;;1.00;99.90;;;;;;5182456;28;20429;-51
2022/12/09 11:07:57;;;;;;;99.30;38.97;;;0.90;99.90;;;;;;5195370;28;21110;-50
2022/12/09 11:10:29;;;;;;;99.30;37.83;;;0.80;99.90;;;;;;5197895;28;20445;-50
2022/12/09 11:13:07;;;;;;;103.53;39.17;;;0.80;99.90;;;;;;5180981;28;20788;-48
2022/12/09 11:15:43;;;;;;;91.53;36.07;;;0.90;99.90;;;;;;5178265;28;20434;-47
2022/12/09 11:18:28;;;;;;;98.90;38.80;;;0.80;99.90;;;;;;5180712;28;20457;-50
2022/12/09 11:21:01;;;;;;;111.87;40.90;;;0.80;99.90;;;;;;5197036;28;20883;-48
2022/12/09 11:23:34;;;;;;;112.13;37.70;;;0.80;99.90;;;;;;5182960;28;20436;-49
2022/12/09 11:26:20;;;;;;;97.73;35.33;;;0.80;99.90;;;;;;5164739;28;20609;-50
2022/12/09 11:29:14;;;;;;;108.37;39.30;;;0.90;99.90;;;;;;5176827;28;20518;-52
2022/12/09 11:31:46;;;;;;;93.60;37.63;;;0.70;99.90;;;;;;5194364;28;20448;-51
2022/12/09 11:34:22;;;;;;;93.97;37.17;;;0.60;99.90;;;;;;5202912;28;20474;-50
2022/12/09 11:36:56;;;;;;;103.93;40.07;;;0.50;99.90;;;;;;5192368;28;20442;-49
2022/12/09 11:39:33;;;;;;;96.80;38.83;;;0.60;99.90;;;;;;5178284;28;20472;-48
2022/12/09 11:42:21;;;;;;;96.83;36.70;;;0.60;99.90;;;;;;5196533;28;20452;-50
2022/12/09 11:44:56;;;;;;;89.87;33.10;;;0.40;99.90;;;;;;5167961;28;20942;-47
2022/12/09 11:47:36;;;;;;;87.27;33.77;;;0.50;99.90;;;;;;5184577;28;20505;-51
2022/12/09 11:50:22;;;;;;;89.87;34.00;;;0.60;99.90;;;;;;5194681;28;20461;-50
2022/12/09 11:53:11;;;;;;;72.20;33.47;;;0.70;99.90;;;;;;5191442;28;20513;-47
2022/12/09 11:56:02;;;;;;;88.10;33.23;;;0.80;99.90;;;;;;5197021;28;20435;-50
2022/12/09 11:58:51;;;;;;;77.80;33.20;;;0.80;99.90;;;;;;5201001;28;20851;-50
2022/12/09 12:01:50;;;;;;;73.90;34.50;;;0.50;99.90;;;;;;5176593;28;20451;-50
2022/12/09 12:04:53;;;;;;;84.67;33.40;;;0.40;99.90;;;;;;5205079;28;20958;-50
2022/12/09 12:07:37;;;;;;;95.47;35.97;;;0.20;99.90;;;;;;5174335;28;20946;-51
2022/12/09 12:10:24;;;;;;;82.33;33.53;;;0.30;99.90;;;;;;5198687;28;20450;-49
2022/12/09 12:13:04;;;;;;;66.60;28.27;;;0.60;99.90;;;;;;5181837;28;20448;-48
2022/12/09 12:15:55;;;;;;;67.37;29.83;;;0.50;99.90;;;;;;5192456;28;20453;-51
2022/12/09 12:18:31;;;;;;;68.97;25.90;;;0.40;99.90;;;;;;5180561;28;20568;-49
2022/12/09 12:21:40;;;;;;;63.67;25.63;;;0.30;99.90;;;;;;5183926;28;20446;-53
2022/12/09 12:24:20;;;;;;;66.00;26.83;;;0.60;99.90;;;;;;5178483;28;20448;-52
2022/12/09 12:27:28;;;;;;;51.63;24.00;;;0.60;99.90;;;;;;5203594;28;20433;-48
2022/12/09 12:30:08;;;;;;;45.40;22.53;;;0.60;99.90;;;;;;5171460;28;20452;-50
2022/12/09 12:32:57;;;;;;;46.60;21.47;;;0.60;99.90;;;;;;5191418;28;20483;-49
2022/12/09 12:35:53;;;;;;;49.73;21.70;;;0.60;99.90;;;;;;5195303;28;20443;-49
2022/12/09 12:38:46;;;;;;;41.47;20.90;;;0.50;99.90;;;;;;5189643;28;20470;-49
2022/12/09 12:41:45;;;;;;;46.00;19.13;;;0.40;99.90;;;;;;5182813;28;20438;-48
2022/12/09 12:48:16;;;;;;;34.73;17.20;;;0.20;99.90;;;;;;5199846;28;20515;-50
2022/12/09 12:50:56;;;;;;;38.40;18.97;;;0.10;99.90;;;;;;5157087;28;20458;-49
2022/12/09 12:53:40;;;;;;;39.17;19.63;;;0.40;99.90;;;;;;5205788;28;20438;-49
2022/12/09 12:56:18;;;;;;;46.43;19.70;;;0.50;99.90;;;;;;5181721;28;20465;-52
2022/12/09 12:59:15;;;;;;;47.73;21.60;;;0.40;99.90;;;;;;5183696;28;20474;-50
2022/12/09 13:01:56;;;;;;;36.97;18.00;;;0.30;99.90;;;;;;5192791;28;20942;-50
2022/12/09 13:05:03;;;;;;;48.07;20.80;;;0.10;99.90;;;;;;5189425;28;20493;-49
2022/12/09 13:08:17;;;;;;;40.50;18.47;;;0.00;99.90;;;;;;5192198;28;20954;-48
2022/12/09 13:10:54;;;;;;;45.87;17.63;;;-0.10;99.90;;;;;;5197768;28;20458;-48
2022/12/09 13:13:37;;;;;;;35.00;18.60;;;0.00;99.90;;;;;;5190353;28;20513;-48
2022/12/09 13:16:30;;;;;;;40.87;20.17;;;0.00;99.90;;;;;;5188502;28;20445;-49